Oxbow, New York
Current Conditions -  °F | °C
As of 5:37 PM on Monday 26 Jan 2015 (Local Time) from KGTB Reporting Station
Light Snow Light Snow  
Wind Chill: -9°   Ceiling: 1400
Heat Index:   Visibility: 10mi
Dew Point: -2°   Wind: 12mph
Humidity: 67%   Direction: 40°NE
Pressure: 30"   Gusts: NA
Location:  44.29°N, 75.62°W
Report Text: KGTB 262237Z AUTO 04010KT 10SM -SN BKN014 OVC060 M14/M19 A3000 RMK AO2 SNB2232
Loading
Personal Weather Stations






























Interactive Weather Map New forecast layout! Learn more

10-Day Weather Forecast

Advertisements
Track Severe Weather on mobile